Terminal Aerodrome Forecast
Issued by NWS

Home | Current Version | Previous Version | Graphics & Text | Print | Product List | Glossary On
Versions: 1 2 3 4 5 6 7 8 9 10 11 12 13 14 15 16 17 18 19 20 21
033
FTUS43 KICT 231720
TAFSLN
TAF
KSLN 231720Z 2318/2418 19016G24KT P6SM SCT150
     FM240200 16012KT P6SM FEW150
     FM240600 18009KT P6SM SCT150 WS020/22040KT
     FM241400 18007KT P6SM SCT150
     FM241600 VRB06KT P6SM BKN150=

USA.gov is the U.S. government's official web portal to all federal, state and local government web resources and services.